Time;durP1;ratioP1;P1;durP2;ratioP2;P2;SDS_P1;SDS_P2;PMS_P1;PMS_P2;Temp;Humidity;BMP_temperature;BMP_pressure;BME280_temperature;BME280_humidity;BME280_pressure;Samples;Min_cycle;Max_cycle;Signal;HPM_P1;HPM_P2
2022/03/05 00:02:13;;;;;;;13.20;7.73;;;3.70;99.90;;;;;;4985827;28;20664;-72
2022/03/05 00:04:39;;;;;;;18.30;9.03;;;3.70;99.90;;;;;;4986763;28;20195;-72
2022/03/05 00:07:04;;;;;;;15.70;8.50;;;3.70;99.90;;;;;;4987810;28;20860;-71
2022/03/05 00:09:30;;;;;;;14.70;8.37;;;3.70;99.90;;;;;;4991409;28;20679;-71
2022/03/05 00:11:56;;;;;;;14.23;8.43;;;3.60;99.90;;;;;;4989810;28;20275;-72
2022/03/05 00:14:21;;;;;;;14.00;8.60;;;3.60;99.90;;;;;;4987367;28;20191;-71
2022/03/05 00:16:47;;;;;;;13.40;8.20;;;3.60;99.90;;;;;;4987208;28;20274;-72
2022/03/05 00:19:12;;;;;;;14.60;8.43;;;3.60;99.90;;;;;;4988404;28;20188;-72
2022/03/05 00:21:38;;;;;;;13.63;8.23;;;3.60;99.90;;;;;;4987566;28;20650;-72
2022/03/05 00:24:03;;;;;;;17.27;8.40;;;3.50;99.90;;;;;;4987366;28;20231;-72
2022/03/05 00:26:29;;;;;;;15.50;7.73;;;3.50;99.90;;;;;;4987973;28;20617;-72
2022/03/05 00:28:54;;;;;;;16.30;8.53;;;3.50;99.90;;;;;;4987592;28;20650;-71
2022/03/05 00:31:21;;;;;;;12.77;7.77;;;3.10;99.90;;;;;;4987020;28;20643;-72
2022/03/05 00:33:46;;;;;;;17.47;8.90;;;3.50;99.90;;;;;;4986966;28;20207;-72
2022/03/05 00:36:12;;;;;;;12.60;8.20;;;3.50;99.90;;;;;;4987695;28;20490;-71
2022/03/05 00:38:37;;;;;;;13.07;8.03;;;3.40;99.90;;;;;;4986929;28;20559;-72
2022/03/05 00:41:03;;;;;;;13.00;8.20;;;3.40;99.90;;;;;;4991768;28;20316;-72
2022/03/05 00:43:28;;;;;;;15.03;7.70;;;3.40;99.90;;;;;;4988253;28;20551;-72
2022/03/05 00:45:54;;;;;;;12.53;7.53;;;3.30;99.90;;;;;;4985992;28;20562;-72
2022/03/05 00:48:19;;;;;;;13.37;7.83;;;3.30;99.90;;;;;;4987004;28;20179;-71
2022/03/05 00:50:45;;;;;;;13.57;7.90;;;3.30;99.90;;;;;;4985375;28;20180;-72
2022/03/05 00:53:12;;;;;;;18.13;9.10;;;3.30;99.90;;;;;;4987414;28;20665;-72
2022/03/05 00:55:38;;;;;;;15.57;7.93;;;3.30;99.90;;;;;;4986172;28;20203;-72
2022/03/05 00:58:04;;;;;;;14.00;8.80;;;3.30;99.90;;;;;;4986029;28;20423;-73
2022/03/05 01:00:29;;;;;;;14.97;7.83;;;3.30;99.90;;;;;;4987267;28;20254;-72
2022/03/05 01:02:55;;;;;;;14.13;8.13;;;3.30;99.90;;;;;;4981202;28;20294;-72
2022/03/05 01:05:20;;;;;;;12.23;7.80;;;3.30;99.90;;;;;;4967663;28;20226;-72
2022/03/05 01:07:46;;;;;;;12.03;7.50;;;3.20;99.90;;;;;;4994016;28;20179;-72
2022/03/05 01:10:11;;;;;;;14.83;8.43;;;3.30;99.90;;;;;;4995521;28;20596;-72
2022/03/05 01:12:37;;;;;;;16.50;8.73;;;3.20;99.90;;;;;;5002538;28;20236;-72
2022/03/05 01:15:04;;;;;;;14.67;8.17;;;3.20;99.90;;;;;;4994745;28;20207;-72
2022/03/05 01:17:30;;;;;;;14.57;8.20;;;3.20;99.90;;;;;;4986514;28;20175;-71
2022/03/05 01:19:55;;;;;;;14.13;7.87;;;3.10;99.90;;;;;;4986171;28;20424;-71
2022/03/05 01:22:21;;;;;;;13.83;8.30;;;3.20;99.90;;;;;;4987482;28;20299;-71
2022/03/05 01:24:46;;;;;;;15.00;8.23;;;3.20;99.90;;;;;;4987331;28;20266;-71
2022/03/05 01:27:12;;;;;;;16.70;9.10;;;3.10;99.90;;;;;;4988136;28;20500;-72
2022/03/05 01:29:37;;;;;;;13.60;8.23;;;3.10;99.90;;;;;;4986875;28;20258;-72
2022/03/05 01:32:03;;;;;;;14.20;8.80;;;3.10;99.90;;;;;;4985030;28;20203;-72
2022/03/05 01:34:29;;;;;;;15.67;8.50;;;3.10;99.90;;;;;;4986693;28;20234;-72
2022/03/05 01:36:54;;;;;;;14.50;8.20;;;3.10;99.90;;;;;;4989386;28;20427;-72
2022/03/05 01:39:20;;;;;;;15.30;7.57;;;3.30;99.90;;;;;;4989580;28;20238;-72
2022/03/05 01:41:48;;;;;;;13.47;7.83;;;;;;;;;;5000521;28;20228;-72
2022/03/05 01:44:13;;;;;;;12.90;7.00;;;3.00;99.90;;;;;;4991130;28;20183;-72
2022/03/05 01:46:40;;;;;;;17.20;9.13;;;2.90;99.90;;;;;;4988812;28;20442;-72
2022/03/05 01:49:10;;;;;;;13.17;7.70;;;3.00;99.90;;;;;;4991365;28;20298;-72
2022/03/05 01:51:37;;;;;;;12.87;7.93;;;3.00;99.90;;;;;;4991046;28;20487;-72
2022/03/05 01:54:03;;;;;;;14.60;8.17;;;3.00;99.90;;;;;;4990837;28;20436;-72
2022/03/05 01:56:30;;;;;;;15.87;8.43;;;2.90;99.90;;;;;;4990984;28;20445;-72
2022/03/05 01:58:55;;;;;;;16.43;8.80;;;2.90;99.90;;;;;;4990786;28;20533;-72
2022/03/05 02:01:24;;;;;;;14.57;8.67;;;2.90;99.90;;;;;;4989863;28;20890;-72
2022/03/05 02:03:51;;;;;;;17.03;9.10;;;3.30;99.90;;;;;;4990697;28;20190;-72
2022/03/05 02:06:16;;;;;;;17.53;8.30;;;2.90;99.90;;;;;;4990661;28;20505;-72
2022/03/05 02:08:42;;;;;;;15.20;8.20;;;2.80;99.90;;;;;;4992077;28;20917;-72
2022/03/05 02:11:08;;;;;;;13.27;8.13;;;2.90;99.90;;;;;;4995287;28;20176;-72
2022/03/05 02:13:33;;;;;;;11.73;7.30;;;3.30;99.90;;;;;;4986669;28;20251;-72
2022/03/05 02:15:59;;;;;;;13.40;8.10;;;2.80;99.90;;;;;;4989979;28;20306;-72
2022/03/05 02:18:25;;;;;;;18.53;8.13;;;2.80;99.90;;;;;;4988540;28;20672;-72
2022/03/05 02:20:51;;;;;;;16.37;9.10;;;3.00;99.90;;;;;;4990286;28;20234;-72
2022/03/05 02:23:17;;;;;;;13.53;8.23;;;2.70;99.90;;;;;;4970932;28;20180;-72
2022/03/05 02:25:58;;;;;;;16.27;9.20;;;2.70;99.90;;;;;;4970974;28;20511;-73
2022/03/05 02:28:24;;;;;;;15.63;8.07;;;2.90;99.90;;;;;;4969111;28;20268;-72
2022/03/05 02:30:50;;;;;;;19.43;8.70;;;3.10;99.90;;;;;;4970355;28;20404;-72
2022/03/05 02:33:17;;;;;;;18.07;8.77;;;2.70;99.90;;;;;;4988599;28;20418;-72
2022/03/05 02:35:43;;;;;;;18.70;9.43;;;2.80;99.90;;;;;;4988644;28;20972;-72
2022/03/05 02:38:13;;;;;;;15.10;8.57;;;2.60;99.90;;;;;;4989898;28;20419;-72
2022/03/05 02:40:39;;;;;;;14.77;9.23;;;2.60;99.90;;;;;;4988680;28;20785;-72
2022/03/05 02:43:06;;;;;;;16.70;8.67;;;2.60;99.90;;;;;;4991454;28;20600;-72
2022/03/05 02:45:32;;;;;;;14.23;8.67;;;2.60;99.90;;;;;;4989429;28;20931;-72
2022/03/05 02:47:57;;;;;;;15.90;9.60;;;2.60;99.90;;;;;;4988609;28;20430;-72
2022/03/05 02:50:23;;;;;;;17.37;7.93;;;2.90;99.90;;;;;;4989540;28;20195;-72
2022/03/05 02:52:48;;;;;;;13.90;8.43;;;2.50;99.90;;;;;;4989097;28;20191;-72
2022/03/05 02:55:14;;;;;;;13.87;7.90;;;2.80;99.90;;;;;;4989671;28;20319;-72
2022/03/05 02:57:39;;;;;;;14.63;8.40;;;2.80;99.90;;;;;;4988155;28;20195;-71
2022/03/05 03:00:05;;;;;;;16.43;8.60;;;2.60;99.90;;;;;;4989255;28;20175;-72
2022/03/05 03:02:31;;;;;;;15.37;9.00;;;2.50;99.90;;;;;;4988774;28;20211;-72
2022/03/05 03:04:56;;;;;;;14.90;8.40;;;2.60;99.90;;;;;;4989739;28;20485;-71
2022/03/05 03:07:23;;;;;;;13.20;8.30;;;2.50;99.90;;;;;;4989328;28;20649;-72
2022/03/05 03:09:48;;;;;;;14.03;8.03;;;2.30;99.90;;;;;;4997345;28;20198;-72
2022/03/05 03:12:14;;;;;;;14.30;8.40;;;2.60;99.90;;;;;;5000913;28;20872;-72
2022/03/05 03:14:39;;;;;;;17.07;8.60;;;2.30;99.90;;;;;;5007307;28;20181;-72
2022/03/05 03:17:05;;;;;;;15.13;9.03;;;2.40;99.90;;;;;;5006583;28;20179;-73
2022/03/05 03:19:30;;;;;;;14.30;8.93;;;2.30;99.90;;;;;;4989853;28;20189;-72
2022/03/05 03:21:56;;;;;;;15.13;9.40;;;2.30;99.90;;;;;;4988957;28;20270;-72
2022/03/05 03:24:21;;;;;;;14.90;9.00;;;2.90;99.90;;;;;;4988901;28;20633;-72
2022/03/05 03:26:47;;;;;;;16.63;9.37;;;2.30;99.90;;;;;;4989144;28;20617;-72
2022/03/05 03:29:12;;;;;;;16.53;9.30;;;2.60;99.90;;;;;;4986850;28;20199;-72
2022/03/05 03:31:38;;;;;;;13.80;9.17;;;2.60;99.90;;;;;;4988277;28;20345;-72
2022/03/05 03:34:04;;;;;;;16.17;9.20;;;2.30;99.90;;;;;;4988990;28;20449;-72
2022/03/05 03:36:30;;;;;;;19.13;9.30;;;2.50;99.90;;;;;;4989100;28;20199;-72
2022/03/05 03:38:55;;;;;;;14.03;8.50;;;2.30;99.90;;;;;;4987411;28;20833;-72
2022/03/05 03:41:21;;;;;;;15.27;8.40;;;2.20;99.90;;;;;;4995113;28;20262;-72
2022/03/05 03:43:46;;;;;;;15.90;8.90;;;2.20;99.90;;;;;;4995343;28;20642;-72
2022/03/05 03:46:12;;;;;;;21.30;9.53;;;2.20;99.90;;;;;;4988449;28;20221;-72
2022/03/05 03:48:38;;;;;;;18.03;9.40;;;2.20;99.90;;;;;;4988020;28;20699;-72
2022/03/05 03:51:04;;;;;;;14.70;9.00;;;2.20;99.90;;;;;;4987393;28;20657;-72
2022/03/05 03:53:29;;;;;;;17.20;9.20;;;2.20;99.90;;;;;;4988566;28;20671;-72
2022/03/05 03:55:55;;;;;;;19.23;9.27;;;2.20;99.90;;;;;;4988552;28;20203;-72
2022/03/05 03:58:20;;;;;;;20.00;9.73;;;2.50;99.90;;;;;;4988051;28;20655;-72
2022/03/05 04:00:46;;;;;;;17.40;9.37;;;2.10;99.90;;;;;;4988567;28;20282;-72
2022/03/05 04:03:11;;;;;;;16.70;9.00;;;2.10;99.90;;;;;;4986862;28;20210;-72
2022/03/05 04:05:37;;;;;;;19.33;9.77;;;2.10;99.90;;;;;;4986982;28;20215;-72
2022/03/05 04:10:47;;;;;;;16.50;9.53;;;2.10;99.90;;;;;;4994497;28;20209;-72
2022/03/05 04:13:12;;;;;;;16.17;8.87;;;2.00;99.90;;;;;;4984195;28;20425;-72
2022/03/05 04:15:39;;;;;;;14.40;8.60;;;2.00;99.90;;;;;;4986143;28;20195;-72
2022/03/05 04:18:06;;;;;;;14.60;9.17;;;2.10;99.90;;;;;;4987713;28;20249;-72
2022/03/05 04:20:32;;;;;;;19.03;9.83;;;2.00;99.90;;;;;;4987181;28;20857;-72
2022/03/05 04:22:58;;;;;;;15.33;9.17;;;2.00;99.90;;;;;;4987762;28;20920;-72
2022/03/05 04:25:24;;;;;;;17.73;10.50;;;1.90;99.90;;;;;;4986761;28;20442;-72
2022/03/05 04:27:50;;;;;;;13.87;8.77;;;2.30;99.90;;;;;;4988472;28;20898;-72
2022/03/05 04:30:16;;;;;;;15.67;9.03;;;2.00;99.90;;;;;;4987908;28;20532;-72
2022/03/05 04:32:41;;;;;;;15.17;9.13;;;2.30;99.90;;;;;;4985277;28;20283;-73
2022/03/05 04:35:08;;;;;;;16.20;9.20;;;1.90;99.90;;;;;;4987923;28;20199;-73
2022/03/05 04:37:34;;;;;;;14.53;9.47;;;1.90;99.90;;;;;;4988204;28;20239;-72
2022/03/05 04:39:59;;;;;;;17.07;8.77;;;1.90;99.90;;;;;;4988108;28;20774;-72
2022/03/05 04:42:25;;;;;;;16.60;9.47;;;2.20;99.90;;;;;;4995866;28;20198;-72
2022/03/05 04:44:50;;;;;;;18.57;9.23;;;1.80;99.90;;;;;;4987723;28;20200;-72
2022/03/05 04:47:16;;;;;;;17.23;9.70;;;2.00;99.90;;;;;;4987438;28;20541;-72
2022/03/05 04:49:41;;;;;;;16.00;8.73;;;1.90;99.90;;;;;;4986638;28;20191;-72
2022/03/05 04:52:07;;;;;;;15.20;9.27;;;2.30;99.90;;;;;;4987155;28;20254;-73
2022/03/05 04:54:33;;;;;;;16.13;9.33;;;2.00;99.90;;;;;;4987826;28;20182;-72
2022/03/05 04:56:59;;;;;;;19.83;9.60;;;2.20;99.90;;;;;;4987920;28;20243;-72
2022/03/05 04:59:24;;;;;;;15.87;9.50;;;2.20;99.90;;;;;;4988008;28;20179;-71
2022/03/05 05:01:50;;;;;;;17.50;9.53;;;2.30;99.90;;;;;;4985453;28;20692;-72
2022/03/05 05:04:15;;;;;;;19.33;10.20;;;1.80;99.90;;;;;;4987589;28;20191;-72
2022/03/05 05:06:41;;;;;;;16.77;9.90;;;2.20;99.90;;;;;;4986370;28;20207;-72
2022/03/05 05:09:06;;;;;;;15.10;8.93;;;1.90;99.90;;;;;;4986775;28;20208;-72
2022/03/05 05:11:32;;;;;;;15.13;8.43;;;2.10;99.90;;;;;;4999365;28;20251;-72
2022/03/05 05:13:58;;;;;;;16.47;9.63;;;1.80;99.90;;;;;;4996432;28;20676;-72
2022/03/05 05:16:23;;;;;;;17.67;10.00;;;1.80;99.90;;;;;;4991466;28;20218;-72
2022/03/05 05:21:33;;;;;;;16.90;9.67;;;2.30;99.90;;;;;;4991567;28;20193;-72
2022/03/05 05:23:59;;;;;;;21.43;10.07;;;2.20;99.90;;;;;;4989790;28;20785;-72
2022/03/05 05:26:24;;;;;;;16.23;8.73;;;2.20;99.90;;;;;;4991653;28;20203;-72
2022/03/05 05:28:50;;;;;;;17.80;10.17;;;1.70;99.90;;;;;;4990050;28;20198;-72
2022/03/05 05:31:15;;;;;;;18.83;9.67;;;2.20;99.90;;;;;;4989285;28;20179;-72
2022/03/05 05:33:44;;;;;;;17.57;10.23;;;1.80;99.90;;;;;;4988898;28;20193;-72
2022/03/05 05:36:11;;;;;;;16.27;9.30;;;2.20;99.90;;;;;;4991499;28;20249;-72
2022/03/05 05:38:36;;;;;;;17.20;9.50;;;1.70;99.90;;;;;;4989079;28;20426;-72
2022/03/05 05:41:02;;;;;;;15.40;9.63;;;2.00;99.90;;;;;;4998837;28;20421;-72
2022/03/05 05:43:28;;;;;;;18.23;9.00;;;2.00;99.90;;;;;;4996799;28;20240;-71
2022/03/05 05:45:54;;;;;;;17.70;9.87;;;1.70;99.90;;;;;;4990469;28;20976;-72
2022/03/05 05:48:19;;;;;;;15.73;9.73;;;1.70;99.90;;;;;;4990210;28;20615;-72
2022/03/05 05:50:45;;;;;;;18.20;8.80;;;1.70;99.90;;;;;;4989662;28;20745;-72
2022/03/05 05:53:10;;;;;;;18.50;9.33;;;2.00;99.90;;;;;;4990311;28;20669;-72
2022/03/05 05:55:36;;;;;;;17.50;9.23;;;1.90;99.90;;;;;;4990527;28;20700;-72
2022/03/05 05:58:02;;;;;;;16.47;9.50;;;2.10;99.90;;;;;;4986959;28;20290;-72
2022/03/05 06:00:28;;;;;;;18.23;9.93;;;1.80;99.90;;;;;;4971017;28;20193;-72
2022/03/05 06:02:53;;;;;;;16.53;9.97;;;1.80;99.90;;;;;;4972451;28;20596;-72
2022/03/05 06:05:19;;;;;;;18.30;10.07;;;1.80;99.90;;;;;;4990913;28;20247;-72
2022/03/05 06:07:45;;;;;;;16.17;9.60;;;1.90;99.90;;;;;;4990628;28;20259;-71
2022/03/05 06:10:10;;;;;;;19.67;10.77;;;1.90;99.90;;;;;;4995320;28;20199;-72
2022/03/05 06:12:37;;;;;;;18.70;9.83;;;1.90;99.90;;;;;;4991205;28;20178;-72
2022/03/05 06:15:04;;;;;;;17.07;10.00;;;2.30;99.90;;;;;;4980788;28;20238;-72
2022/03/05 06:17:30;;;;;;;17.70;10.67;;;2.00;99.90;;;;;;4989358;28;20780;-72
2022/03/05 06:19:55;;;;;;;18.50;9.37;;;2.40;99.90;;;;;;4990320;28;20490;-72
2022/03/05 06:22:21;;;;;;;22.23;10.23;;;2.50;99.90;;;;;;4987810;28;20476;-73
2022/03/05 06:24:46;;;;;;;17.00;9.50;;;2.10;99.90;;;;;;4989952;28;20179;-72
2022/03/05 06:27:12;;;;;;;17.63;9.73;;;2.40;99.90;;;;;;4988460;28;20172;-73
2022/03/05 06:29:37;;;;;;;18.33;10.63;;;2.10;99.90;;;;;;4989835;28;20282;-72
2022/03/05 06:32:03;;;;;;;17.07;9.80;;;2.40;99.90;;;;;;4988870;28;20168;-72
2022/03/05 06:34:29;;;;;;;17.37;10.37;;;2.20;99.90;;;;;;4989948;28;20172;-72
2022/03/05 06:36:55;;;;;;;17.50;10.43;;;2.20;99.90;;;;;;4989881;28;20192;-72
2022/03/05 06:39:21;;;;;;;18.23;9.60;;;2.60;99.90;;;;;;4989487;28;20259;-72
2022/03/05 06:41:46;;;;;;;19.23;10.10;;;2.20;99.90;;;;;;4999147;28;20430;-72
2022/03/05 06:44:12;;;;;;;20.03;10.57;;;2.70;99.90;;;;;;5009289;28;20175;-72
2022/03/05 06:46:37;;;;;;;17.93;10.03;;;2.50;99.90;;;;;;5009029;28;20566;-72
2022/03/05 06:49:03;;;;;;;18.73;10.30;;;2.40;99.90;;;;;;5003141;28;20474;-72
2022/03/05 06:51:28;;;;;;;19.00;11.10;;;2.90;99.90;;;;;;4989419;28;20251;-72
2022/03/05 06:53:54;;;;;;;20.30;10.30;;;2.70;99.90;;;;;;4989919;28;20183;-72
2022/03/05 06:56:19;;;;;;;19.63;10.47;;;2.60;99.90;;;;;;4988975;28;20199;-72
2022/03/05 06:58:45;;;;;;;17.40;10.40;;;2.70;99.90;;;;;;4989359;28;20206;-72
2022/03/05 07:01:10;;;;;;;19.00;10.53;;;2.80;99.90;;;;;;4987442;28;20323;-72
2022/03/05 07:03:36;;;;;;;21.57;11.80;;;3.30;99.90;;;;;;4988442;28;20192;-72
2022/03/05 07:06:02;;;;;;;20.27;11.53;;;3.10;99.90;;;;;;4989358;28;20200;-72
2022/03/05 07:08:28;;;;;;;19.27;10.90;;;3.50;99.90;;;;;;4989408;28;20606;-72
2022/03/05 07:10:54;;;;;;;19.97;10.90;;;3.60;99.90;;;;;;4997078;28;20518;-73
2022/03/05 07:13:19;;;;;;;19.37;11.50;;;3.60;99.90;;;;;;4989157;28;20187;-72
2022/03/05 07:15:45;;;;;;;20.47;11.30;;;3.40;99.90;;;;;;4987272;28;20238;-72
2022/03/05 07:18:10;;;;;;;19.47;11.67;;;3.30;99.90;;;;;;4988121;28;20646;-72
2022/03/05 07:20:36;;;;;;;21.43;11.80;;;3.20;99.90;;;;;;4989070;28;20187;-72
2022/03/05 07:23:04;;;;;;;19.10;11.47;;;3.20;99.90;;;;;;4987408;28;20639;-72
2022/03/05 07:25:43;;;;;;;18.80;10.50;;;3.20;99.90;;;;;;4987199;28;20472;-72
2022/03/05 07:28:10;;;;;;;19.10;10.83;;;3.20;99.90;;;;;;4987420;28;20430;-72
2022/03/05 07:30:37;;;;;;;19.97;11.73;;;3.20;99.90;;;;;;4987335;28;21089;-72
2022/03/05 07:33:04;;;;;;;19.20;10.63;;;3.30;99.90;;;;;;4988047;28;20586;-72
2022/03/05 07:35:29;;;;;;;18.20;11.13;;;3.40;99.90;;;;;;4988499;28;20450;-72
2022/03/05 07:37:55;;;;;;;21.67;12.13;;;3.30;99.90;;;;;;4987618;28;20438;-73
2022/03/05 07:40:20;;;;;;;20.77;11.30;;;3.40;99.90;;;;;;4997227;28;20222;-73
2022/03/05 07:42:46;;;;;;;16.60;10.47;;;3.40;99.90;;;;;;4995756;28;20199;-72
2022/03/05 07:45:11;;;;;;;18.93;11.00;;;3.50;99.90;;;;;;4990897;28;20226;-72
2022/03/05 07:47:37;;;;;;;20.23;11.10;;;3.50;99.90;;;;;;4994021;28;20253;-72
2022/03/05 07:50:04;;;;;;;21.87;12.00;;;3.60;99.90;;;;;;4988104;28;20662;-72
2022/03/05 07:52:30;;;;;;;23.77;12.23;;;3.60;99.90;;;;;;4982710;28;20188;-72
2022/03/05 07:54:55;;;;;;;20.60;12.00;;;3.70;99.90;;;;;;4983690;28;20978;-72
2022/03/05 07:57:21;;;;;;;24.63;12.33;;;4.10;99.90;;;;;;4991164;28;20184;-72
2022/03/05 07:59:46;;;;;;;21.10;12.17;;;3.80;99.90;;;;;;4986463;28;20184;-72
2022/03/05 08:02:15;;;;;;;20.03;12.00;;;3.80;99.90;;;;;;4987193;28;20272;-72
2022/03/05 08:04:41;;;;;;;26.87;11.87;;;3.90;99.90;;;;;;4986672;28;20187;-72
2022/03/05 08:07:07;;;;;;;18.93;11.33;;;4.00;99.90;;;;;;4988582;28;20487;-72
2022/03/05 08:09:36;;;;;;;22.03;11.93;;;4.10;99.90;;;;;;4996063;28;20459;-72
2022/03/05 08:12:05;;;;;;;21.03;12.17;;;4.10;99.90;;;;;;4977944;28;20430;-72
2022/03/05 08:14:31;;;;;;;24.27;12.33;;;4.20;99.90;;;;;;4991731;28;20438;-72
2022/03/05 08:16:56;;;;;;;23.07;13.60;;;4.20;99.90;;;;;;4987304;28;21078;-72
2022/03/05 08:19:22;;;;;;;20.93;12.33;;;4.20;99.90;;;;;;4988492;28;20247;-72
2022/03/05 08:21:47;;;;;;;21.07;11.70;;;4.30;99.90;;;;;;4987491;28;20186;-72
2022/03/05 08:24:13;;;;;;;22.80;12.43;;;4.30;99.90;;;;;;4987687;28;20191;-72
2022/03/05 08:26:38;;;;;;;22.10;11.87;;;4.40;99.90;;;;;;4987637;28;20199;-72
2022/03/05 08:29:04;;;;;;;22.70;12.73;;;4.70;99.90;;;;;;4991460;28;20195;-72
2022/03/05 08:31:33;;;;;;;23.90;13.33;;;4.60;99.90;;;;;;4988158;28;20190;-73
2022/03/05 08:34:01;;;;;;;19.67;12.67;;;4.70;99.90;;;;;;4987740;28;20174;-72
2022/03/05 08:36:27;;;;;;;22.10;13.27;;;4.70;99.90;;;;;;4986842;28;20446;-72
2022/03/05 08:38:52;;;;;;;22.27;13.80;;;4.80;99.90;;;;;;4984428;28;20543;-72
2022/03/05 08:41:18;;;;;;;22.13;13.20;;;4.90;99.90;;;;;;4986972;28;20441;-73
2022/03/05 08:43:44;;;;;;;25.10;14.60;;;5.00;99.90;;;;;;4986574;28;20227;-73
2022/03/05 08:46:09;;;;;;;22.20;13.50;;;5.10;99.90;;;;;;4983301;28;20286;-73
2022/03/05 08:48:35;;;;;;;23.03;13.17;;;5.20;99.90;;;;;;4986448;28;20531;-72
2022/03/05 08:51:01;;;;;;;25.13;14.10;;;5.30;99.90;;;;;;4985407;28;20185;-74
2022/03/05 08:53:26;;;;;;;27.33;13.60;;;5.60;99.90;;;;;;4982284;28;20187;-72
2022/03/05 08:55:52;;;;;;;21.37;13.90;;;6.80;99.90;;;;;;4982273;28;20202;-72
2022/03/05 08:58:19;;;;;;;25.73;15.37;;;8.90;93.30;;;;;;4985323;28;20382;-73
2022/03/05 09:00:45;;;;;;;25.97;16.07;;;10.60;83.30;;;;;;4983457;28;20628;-73
2022/03/05 09:03:11;;;;;;;23.33;14.80;;;11.90;70.80;;;;;;4982787;28;20431;-74
2022/03/05 09:05:36;;;;;;;24.80;16.30;;;12.70;63.90;;;;;;4979562;28;20451;-73
2022/03/05 09:08:02;;;;;;;23.67;15.97;;;13.40;61.00;;;;;;4987209;28;20187;-74
2022/03/05 09:10:29;;;;;;;25.77;17.17;;;14.00;56.40;;;;;;4985716;28;20199;-73
2022/03/05 09:12:54;;;;;;;23.47;16.37;;;14.50;50.60;;;;;;4986599;28;20175;-74
2022/03/05 09:15:20;;;;;;;26.47;17.23;;;15.00;49.20;;;;;;4985807;28;20442;-72
2022/03/05 09:17:45;;;;;;;22.30;17.43;;;15.80;42.90;;;;;;4986540;28;20182;-71
2022/03/05 09:20:12;;;;;;;23.73;17.20;;;16.10;43.30;;;;;;4986951;28;20187;-71
2022/03/05 09:22:38;;;;;;;23.90;16.50;;;16.40;43.40;;;;;;4986156;28;20194;-71
2022/03/05 09:25:04;;;;;;;24.97;18.00;;;17.30;44.10;;;;;;4984026;28;20449;-71
2022/03/05 09:27:30;;;;;;;27.03;18.30;;;17.00;43.90;;;;;;4986695;28;20495;-71
2022/03/05 09:29:56;;;;;;;25.07;17.93;;;17.50;44.30;;;;;;4984070;28;20874;-72
2022/03/05 09:32:22;;;;;;;24.30;17.97;;;18.30;45.00;;;;;;4986065;28;20166;-71
2022/03/05 09:34:47;;;;;;;24.80;17.90;;;19.00;43.40;;;;;;4987401;28;20424;-73
2022/03/05 09:37:13;;;;;;;21.23;15.90;;;19.00;44.00;;;;;;4986689;28;20519;-71
2022/03/05 09:39:38;;;;;;;24.33;17.50;;;19.80;43.60;;;;;;4987279;28;20202;-72
2022/03/05 09:42:05;;;;;;;23.90;17.67;;;20.30;33.70;;;;;;4986741;28;20167;-72
2022/03/05 09:44:31;;;;;;;21.33;16.90;;;19.80;32.40;;;;;;4987341;28;20177;-72
2022/03/05 09:46:59;;;;;;;23.20;17.67;;;20.00;34.30;;;;;;4984637;28;20560;-72
2022/03/05 09:49:26;;;;;;;24.13;17.63;;;20.10;33.60;;;;;;5000964;28;20891;-72
2022/03/05 09:51:53;;;;;;;19.53;16.30;;;19.50;30.90;;;;;;4987430;28;20456;-72
2022/03/05 09:54:19;;;;;;;23.20;17.30;;;19.60;33.20;;;;;;4989322;28;20492;-72
2022/03/05 09:56:45;;;;;;;21.50;16.23;;;20.10;30.30;;;;;;4987659;28;20943;-71
2022/03/05 09:59:10;;;;;;;20.90;16.30;;;20.70;28.00;;;;;;4990732;28;20450;-72
2022/03/05 10:01:36;;;;;;;24.17;16.73;;;21.20;26.00;;;;;;4990468;28;20249;-71
2022/03/05 10:04:02;;;;;;;20.03;15.87;;;22.00;25.30;;;;;;4990194;28;20277;-71
2022/03/05 10:06:28;;;;;;;22.57;17.33;;;22.70;22.70;;;;;;4988974;28;21035;-73
2022/03/05 10:08:55;;;;;;;20.77;15.50;;;23.10;20.80;;;;;;4991357;28;20197;-71
2022/03/05 10:11:23;;;;;;;21.80;15.40;;;23.60;19.80;;;;;;4990590;28;20406;-72
2022/03/05 10:13:49;;;;;;;19.03;14.80;;;24.70;19.10;;;;;;4988913;28;20183;-71
2022/03/05 10:16:33;;;;;;;19.63;15.63;;;25.20;15.10;;;;;;4990844;28;20704;-72
2022/03/05 10:19:19;;;;;;;18.90;15.03;;;26.10;12.80;;;;;;4990191;28;20236;-71
2022/03/05 10:21:57;;;;;;;19.80;15.00;;;25.20;11.30;;;;;;4989960;28;20193;-72
2022/03/05 10:24:39;;;;;;;19.50;15.57;;;24.10;14.10;;;;;;4992092;28;20177;-71
2022/03/05 10:27:09;;;;;;;19.10;15.03;;;23.80;13.30;;;;;;4997361;28;20521;-71
2022/03/05 10:29:39;;;;;;;18.70;15.77;;;23.40;15.00;;;;;;4990287;28;20202;-71
2022/03/05 10:32:07;;;;;;;15.80;13.70;;;23.70;14.40;;;;;;4989190;28;20325;-71
2022/03/05 10:34:41;;;;;;;19.40;13.83;;;24.10;13.10;;;;;;4989241;28;20688;-72
2022/03/05 10:37:08;;;;;;;15.47;12.87;;;24.40;11.60;;;;;;4989628;28;20186;-71
2022/03/05 10:39:34;;;;;;;15.70;12.23;;;24.60;9.50;;;;;;4989735;28;20644;-71
2022/03/05 10:42:00;;;;;;;13.67;11.57;;;24.50;9.10;;;;;;4989656;28;20270;-71
2022/03/05 10:44:26;;;;;;;14.13;11.10;;;24.70;8.30;;;;;;4987605;28;20298;-71
2022/03/05 10:46:59;;;;;;;18.13;12.33;;;23.80;8.20;;;;;;4988997;28;20194;-71
2022/03/05 10:49:33;;;;;;;21.60;13.00;;;23.00;10.20;;;;;;4987628;28;20688;-71
2022/03/05 10:52:02;;;;;;;16.70;12.70;;;22.90;11.70;;;;;;4989503;28;20596;-71
2022/03/05 10:54:41;;;;;;;14.97;11.60;;;22.80;10.90;;;;;;4989877;28;20175;-71
2022/03/05 10:57:10;;;;;;;13.10;10.50;;;23.60;9.40;;;;;;4990147;28;20179;-71
2022/03/05 10:59:41;;;;;;;12.57;10.40;;;24.10;6.00;;;;;;4988405;28;20377;-72
2022/03/05 11:02:09;;;;;;;14.43;10.93;;;24.30;5.70;;;;;;4988540;28;20171;-72
2022/03/05 11:04:35;;;;;;;11.07;9.30;;;24.70;6.00;;;;;;4986332;28;20289;-72
2022/03/05 11:07:02;;;;;;;12.90;10.43;;;26.90;5.20;;;;;;4989851;28;20166;-72
2022/03/05 11:09:29;;;;;;;13.70;9.50;;;25.00;3.20;;;;;;4989111;28;20226;-72
2022/03/05 11:11:57;;;;;;;14.80;10.97;;;25.70;1.40;;;;;;4987969;28;20195;-72
2022/03/05 11:14:23;;;;;;;14.27;10.80;;;26.80;1.00;;;;;;4988931;28;20183;-72
2022/03/05 11:16:49;;;;;;;13.27;10.80;;;27.10;1.00;;;;;;4969945;28;20187;-72
2022/03/05 11:19:15;;;;;;;12.38;8.27;;;27.90;1.00;;;;;;4988451;28;20182;-72
2022/03/05 11:21:40;;;;;;;11.18;9.98;;;27.00;1.00;;;;;;4989786;28;20361;-72
2022/03/05 11:24:07;;;;;;;10.80;9.23;;;25.50;1.00;;;;;;4989798;28;20646;-71
2022/03/05 11:26:37;;;;;;;22.13;7.47;;;25.20;1.00;;;;;;4990078;28;20190;-74
2022/03/05 11:29:02;;;;;;;12.53;7.40;;;24.40;3.10;;;;;;4986617;28;20385;-72
2022/03/05 11:31:34;;;;;;;13.27;9.20;;;24.30;1.00;;;;;;4988006;28;20281;-71
2022/03/05 11:34:19;;;;;;;10.97;8.90;;;24.40;1.00;;;;;;4989134;28;20183;-72
2022/03/05 11:36:47;;;;;;;11.30;9.33;;;24.20;1.00;;;;;;4989587;28;20281;-73
2022/03/05 11:39:20;;;;;;;11.70;8.60;;;24.60;1.00;;;;;;4989592;28;20170;-72
2022/03/05 11:41:50;;;;;;;11.20;8.80;;;24.90;1.00;;;;;;4989910;28;20249;-72
2022/03/05 11:44:17;;;;;;;11.33;9.33;;;24.70;1.00;;;;;;4979390;28;20223;-72
2022/03/05 11:46:42;;;;;;;12.10;10.03;;;23.70;1.00;;;;;;4968509;28;20604;-73
2022/03/05 11:49:12;;;;;;;13.67;10.20;;;23.30;1.00;;;;;;4983491;28;20257;-72
2022/03/05 11:51:52;;;;;;;13.33;9.90;;;24.20;1.00;;;;;;4988573;28;20177;-72
2022/03/05 11:54:17;;;;;;;11.13;9.13;;;25.20;1.00;;;;;;4990249;28;20321;-72
2022/03/05 11:57:14;;;;;;;10.97;8.63;;;25.80;1.00;;;;;;4987309;28;20708;-72
2022/03/05 11:59:42;;;;;;;10.80;8.63;;;25.50;1.00;;;;;;4986332;28;20186;-72
2022/03/05 12:02:08;;;;;;;9.50;8.00;;;25.60;1.00;;;;;;4987254;28;20713;-72
2022/03/05 12:04:34;;;;;;;11.40;8.50;;;25.30;1.00;;;;;;4989670;28;20290;-72
2022/03/05 12:07:12;;;;;;;10.10;8.03;;;24.40;1.00;;;;;;4988173;28;20244;-72
2022/03/05 12:09:40;;;;;;;9.47;7.50;;;24.00;1.00;;;;;;4983615;28;20206;-72
2022/03/05 12:12:10;;;;;;;11.20;8.37;;;24.90;1.00;;;;;;4987385;28;20167;-73
2022/03/05 12:15:04;;;;;;;10.60;8.70;;;25.90;1.00;;;;;;4989026;28;20190;-72
2022/03/05 12:18:00;;;;;;;10.40;9.23;;;25.90;1.00;;;;;;4988712;28;20194;-72
2022/03/05 12:20:35;;;;;;;13.27;10.07;;;24.70;1.00;;;;;;4987748;28;20329;-72
2022/03/05 12:23:05;;;;;;;13.07;10.60;;;24.00;1.00;;;;;;5004202;28;20494;-72
2022/03/05 12:25:35;;;;;;;13.43;10.20;;;24.00;1.00;;;;;;4989853;28;20202;-74
2022/03/05 12:28:04;;;;;;;12.10;9.83;;;25.00;1.00;;;;;;4989803;28;20397;-73
2022/03/05 12:30:40;;;;;;;11.27;9.65;;;24.30;1.00;;;;;;4988094;28;20600;-77
2022/03/05 12:33:06;;;;;;;12.77;10.50;;;25.30;1.00;;;;;;4988598;28;20229;-71
2022/03/05 12:35:33;;;;;;;14.60;10.93;;;24.70;1.00;;;;;;4988995;28;20485;-71
2022/03/05 12:37:59;;;;;;;13.93;11.03;;;24.60;1.00;;;;;;4989599;28;20410;-71
2022/03/05 12:40:26;;;;;;;11.20;9.80;;;24.40;1.00;;;;;;4987492;28;20781;-71
2022/03/05 12:42:53;;;;;;;16.13;10.60;;;25.20;1.00;;;;;;4988565;28;20637;-71
2022/03/05 12:45:20;;;;;;;13.30;10.27;;;25.50;1.00;;;;;;4988234;28;20253;-72